Time;durP1;ratioP1;P1;durP2;ratioP2;P2;SDS_P1;SDS_P2;PMS_P1;PMS_P2;Temp;Humidity;BMP_temperature;BMP_pressure;BME280_temperature;BME280_humidity;BME280_pressure;Samples;Min_cycle;Max_cycle;Signal;HPM_P1;HPM_P2
2021/04/14 00:02:14;;;;;;;10.72;5.33;;;;;;;4.95;62.72;101318.75;1689894;83;26409;-74
2021/04/14 00:04:41;;;;;;;6.90;4.45;;;;;;;4.95;62.90;101316.58;1673478;82;25848;-73
2021/04/14 00:07:10;;;;;;;6.05;4.10;;;;;;;4.96;62.98;101314.30;1705866;83;25861;-73
2021/04/14 00:09:38;;;;;;;7.75;4.17;;;;;;;4.95;62.88;101315.25;1684327;81;26074;-74
2021/04/14 00:12:07;;;;;;;8.43;4.15;;;;;;;4.94;62.82;101317.06;1684986;82;27544;-73
2021/04/14 00:14:34;;;;;;;9.30;4.83;;;;;;;4.95;63.03;101316.10;1705984;81;25868;-74
2021/04/14 00:17:02;;;;;;;9.48;4.78;;;;;;;4.94;62.90;101323.70;1745250;81;25975;-74
2021/04/14 00:19:31;;;;;;;10.88;5.10;;;;;;;4.94;62.90;101320.23;1677212;82;25644;-73
2021/04/14 00:21:59;;;;;;;10.25;5.28;;;;;;;4.91;62.87;101322.66;1719317;82;25824;-74
2021/04/14 00:24:27;;;;;;;8.63;4.40;;;;;;;4.92;62.98;101318.19;1737672;81;28062;-74
2021/04/14 00:26:54;;;;;;;8.40;4.62;;;;;;;4.91;63.13;101316.02;1720366;81;25713;-74
2021/04/14 00:29:21;;;;;;;6.50;4.65;;;;;;;4.92;63.23;101313.70;1704449;81;25886;-74
2021/04/14 00:31:49;;;;;;;9.40;4.87;;;;;;;4.94;63.23;101314.91;1701774;81;25838;-73
2021/04/14 00:34:21;;;;;;;9.00;4.97;;;;;;;4.93;63.34;101315.39;1723561;81;25824;-73
2021/04/14 00:36:49;;;;;;;11.30;4.78;;;;;;;4.94;63.25;101312.27;1746115;81;28289;-74
2021/04/14 00:39:22;;;;;;;12.40;5.42;;;;;;;4.92;63.46;101307.58;1679481;81;25797;-74
2021/04/14 00:41:51;;;;;;;14.03;5.58;;;;;;;4.92;63.55;101311.55;1716111;81;25845;-74
2021/04/14 00:44:19;;;;;;;7.03;4.90;;;;;;;4.92;63.60;101314.21;1739768;81;25708;-74
2021/04/14 00:46:47;;;;;;;9.55;5.00;;;;;;;4.91;63.63;101312.03;1746771;81;26064;-74
2021/04/14 00:49:14;;;;;;;12.95;5.42;;;;;;;4.91;63.75;101315.17;1701182;81;27560;-73
2021/04/14 00:51:42;;;;;;;9.80;4.80;;;;;;;4.92;63.73;101316.86;1702816;81;25715;-75
2021/04/14 00:54:12;;;;;;;10.82;4.62;;;;;;;4.92;63.86;101315.02;1710216;82;25980;-74
2021/04/14 00:56:40;;;;;;;10.15;5.22;;;;;;;4.90;64.02;101316.98;1726502;81;26263;-74
2021/04/14 00:59:07;;;;;;;15.45;5.20;;;;;;;4.89;63.99;101317.97;1694732;81;26138;-73
2021/04/14 01:01:34;;;;;;;8.15;4.53;;;;;;;4.90;64.10;101313.50;1724988;81;27643;-73
2021/04/14 01:04:02;;;;;;;10.95;5.30;;;;;;;4.88;64.25;101313.61;1737702;81;26418;-73
2021/04/14 01:06:29;;;;;;;9.40;4.95;;;;;;;4.86;64.15;101318.22;1742584;81;25890;-73
2021/04/14 01:08:59;;;;;;;11.22;4.58;;;;;;;4.83;64.27;101309.21;1703004;82;26631;-73
2021/04/14 01:11:29;;;;;;;9.00;4.40;;;;;;;4.83;64.38;101309.21;1724925;81;26164;-73
2021/04/14 01:13:56;;;;;;;7.00;4.50;;;;;;;4.82;64.56;101307.52;1723106;81;28318;-73
2021/04/14 01:16:23;;;;;;;10.48;3.90;;;;;;;4.78;64.65;101300.80;1745194;81;25728;-73
2021/04/14 01:18:51;;;;;;;8.58;4.67;;;;;;;4.76;64.69;101311.19;1673677;81;26509;-73
2021/04/14 01:21:36;;;;;;;10.78;4.15;;;;;;;4.74;64.89;101315.30;1708751;81;25737;-73
2021/04/14 01:24:12;;;;;;;8.68;4.35;;;;;;;4.73;64.96;101308.30;1715597;81;25964;-73
2021/04/14 01:26:40;;;;;;;6.35;4.10;;;;;;;4.71;64.80;101303.61;1744411;81;28458;-74
2021/04/14 01:29:10;;;;;;;7.50;3.20;;;;;;;4.69;64.75;101304.23;1716057;81;25839;-74
2021/04/14 01:31:38;;;;;;;11.80;4.10;;;;;;;4.67;64.71;101299.55;1720491;81;25607;-74
2021/04/14 01:34:10;;;;;;;9.18;3.30;;;;;;;4.66;64.84;101302.67;1722133;81;26270;-74
2021/04/14 01:36:38;;;;;;;11.08;3.85;;;;;;;4.66;64.88;101304.52;1720885;81;26067;-75
2021/04/14 01:39:09;;;;;;;7.37;3.77;;;;;;;4.64;65.03;101305.14;1693187;81;27501;-73
2021/04/14 01:41:38;;;;;;;12.23;5.37;;;;;;;4.63;64.96;101295.48;1696098;82;25946;-74
2021/04/14 01:44:10;;;;;;;10.13;3.83;;;;;;;4.60;65.08;101293.92;1730481;82;25862;-73
2021/04/14 01:46:39;;;;;;;13.30;3.45;;;;;;;4.57;64.92;101300.84;1693638;81;25776;-74
2021/04/14 01:49:08;;;;;;;7.20;3.50;;;;;;;4.56;64.92;101291.19;1719118;81;25781;-74
2021/04/14 01:51:36;;;;;;;10.23;4.35;;;;;;;4.55;64.75;101295.30;1686984;83;27388;-74
2021/04/14 01:54:05;;;;;;;7.80;3.87;;;;;;;4.53;64.83;101294.09;1731488;82;26355;-74
2021/04/14 01:56:32;;;;;;;9.95;3.85;;;;;;;4.53;64.60;101286.63;1678413;81;25794;-73
2021/04/14 01:58:59;;;;;;;9.28;3.37;;;;;;;4.50;64.60;101283.75;1694714;81;25862;-73
2021/04/14 02:01:27;;;;;;;7.25;3.15;;;;;;;4.50;64.66;101287.73;1745544;81;26459;-73
2021/04/14 02:03:54;;;;;;;7.20;3.70;;;;;;;4.50;64.58;101279.77;1746979;81;27540;-74
2021/04/14 02:06:21;;;;;;;5.72;3.08;;;;;;;4.52;64.65;101288.92;1670493;81;26488;-73
2021/04/14 02:08:48;;;;;;;8.20;3.47;;;;;;;4.51;64.53;101290.72;1687242;83;26636;-73
2021/04/14 02:11:17;;;;;;;6.47;2.92;;;;;;;4.50;64.56;101289.06;1659395;83;25970;-74
2021/04/14 02:13:45;;;;;;;8.45;3.02;;;;;;;4.50;64.57;101289.06;1734495;82;26078;-73
2021/04/14 02:16:20;;;;;;;6.87;2.52;;;;;;;4.49;64.37;101287.36;1709917;81;27499;-73
2021/04/14 02:18:50;;;;;;;8.23;3.12;;;;;;;4.49;64.39;101287.87;1698124;82;26446;-74
2021/04/14 02:21:20;;;;;;;7.92;2.37;;;;;;;4.46;64.46;101288.97;1756280;79;25769;-74
2021/04/14 02:23:49;;;;;;;10.77;2.77;;;;;;;4.45;64.28;101283.77;1776566;79;26808;-74
2021/04/14 02:26:20;;;;;;;10.38;2.98;;;;;;;4.43;64.49;101283.06;1746714;79;26100;-74
2021/04/14 02:28:48;;;;;;;8.78;2.77;;;;;;;4.44;64.44;101282.11;1738296;80;28361;-73
2021/04/14 02:31:31;;;;;;;8.38;2.52;;;;;;;4.43;64.52;101280.41;1757872;79;25924;-72
2021/04/14 02:34:06;;;;;;;8.08;2.50;;;;;;;4.42;64.40;101281.41;1775032;79;25744;-73
2021/04/14 02:36:34;;;;;;;8.38;3.00;;;;;;;4.40;64.45;101278.89;1695004;81;25785;-74
2021/04/14 02:39:03;;;;;;;10.10;2.67;;;;;;;4.40;64.59;101276.23;1673550;82;26663;-72
2021/04/14 02:41:30;;;;;;;12.35;2.58;;;;;;;4.39;64.40;101277.19;1744111;81;27342;-73
2021/04/14 02:43:57;;;;;;;7.47;2.40;;;;;;;4.39;64.39;101277.19;1713794;82;26015;-73
2021/04/14 02:46:24;;;;;;;7.92;2.90;;;;;;;4.37;64.31;101277.81;1671377;82;25832;-73
2021/04/14 02:48:53;;;;;;;6.12;2.27;;;;;;;4.36;64.33;101282.74;1709421;81;26422;-73
2021/04/14 02:51:21;;;;;;;6.78;2.52;;;;;;;4.34;64.55;101283.88;1712017;81;25793;-73
2021/04/14 02:53:48;;;;;;;6.37;2.35;;;;;;;4.31;64.53;101284.97;1740875;81;27703;-73
2021/04/14 02:56:16;;;;;;;7.58;1.95;;;;;;;4.32;64.61;101282.66;1689136;81;25793;-73
2021/04/14 02:58:43;;;;;;;10.05;2.77;;;;;;;4.33;64.68;101275.55;1694306;81;25890;-73
2021/04/14 03:01:11;;;;;;;9.13;2.30;;;;;;;4.32;64.58;101273.38;1716137;81;25806;-73
2021/04/14 03:03:38;;;;;;;8.85;2.83;;;;;;;4.30;64.73;101274.50;1694223;81;25851;-74
2021/04/14 03:06:05;;;;;;;7.15;2.25;;;;;;;4.26;64.75;101269.92;1702020;81;27540;-73
2021/04/14 03:08:33;;;;;;;7.15;2.35;;;;;;;4.25;64.81;101270.06;1705743;81;25950;-73
2021/04/14 03:11:00;;;;;;;8.20;2.35;;;;;;;4.23;64.96;101269.34;1712502;81;25822;-74
2021/04/14 03:13:28;;;;;;;12.28;2.60;;;;;;;4.22;64.89;101265.00;1716030;81;26483;-73
2021/04/14 03:15:55;;;;;;;11.00;2.95;;;;;;;4.20;64.85;101267.80;1696946;81;25811;-73
2021/04/14 03:18:22;;;;;;;10.15;3.00;;;;;;;4.21;64.86;101258.88;1709182;82;28553;-73
2021/04/14 03:20:50;;;;;;;6.62;2.12;;;;;;;4.21;64.88;101263.34;1709896;82;25886;-73
2021/04/14 03:23:18;;;;;;;6.35;1.60;;;;;;;4.21;64.95;101262.02;1741361;81;25446;-74
2021/04/14 03:25:45;;;;;;;9.60;1.98;;;;;;;4.19;64.55;101258.14;1685123;82;26428;-74
2021/04/14 03:28:13;;;;;;;10.03;1.95;;;;;;;4.18;64.52;101258.28;1687679;81;26502;-74
2021/04/14 03:30:41;;;;;;;7.28;2.40;;;;;;;4.19;64.39;101259.98;1709419;82;27341;-74
2021/04/14 03:33:10;;;;;;;5.30;1.82;;;;;;;4.20;64.52;101261.16;1736592;82;25766;-73
2021/04/14 03:35:37;;;;;;;9.03;2.05;;;;;;;4.22;64.41;101263.20;1711703;82;25995;-74
2021/04/14 03:38:05;;;;;;;6.62;2.12;;;;;;;4.22;64.34;101261.88;1710510;81;26344;-74
2021/04/14 03:40:34;;;;;;;10.30;3.05;;;;;;;4.22;64.48;101267.17;1720311;81;25826;-73
2021/04/14 03:43:02;;;;;;;7.65;1.75;;;;;;;4.20;64.56;101261.64;1737834;81;27540;-73
2021/04/14 03:45:44;;;;;;;7.35;2.40;;;;;;;4.19;64.91;101259.47;1701535;81;26088;-73
2021/04/14 03:48:11;;;;;;;7.35;2.33;;;;;;;4.16;64.96;101254.92;1740480;81;25892;-74
2021/04/14 03:50:39;;;;;;;6.45;2.10;;;;;;;4.10;65.27;101256.77;1716768;81;25772;-74
2021/04/14 03:53:22;;;;;;;6.72;2.00;;;;;;;4.07;65.09;101257.02;1740481;81;26547;-74
2021/04/14 03:55:46;;;;;;;8.13;2.47;;;;;;;4.05;65.46;101264.25;1716276;82;27700;-73
2021/04/14 03:58:34;;;;;;;10.20;3.30;;;;;;;4.02;65.85;101264.53;1728548;81;25843;-73
2021/04/14 04:01:07;;;;;;;8.35;2.65;;;;;;;3.99;65.92;101269.60;1713664;82;25874;-73
2021/04/14 04:03:35;;;;;;;10.38;2.92;;;;;;;3.99;65.89;101268.75;1743707;81;25807;-73
2021/04/14 04:06:03;;;;;;;16.02;3.58;;;;;;;3.95;66.03;101266.85;1692337;82;26494;-73
2021/04/14 04:08:31;;;;;;;17.57;3.15;;;;;;;3.95;66.28;101273.48;1692034;81;28451;-74
2021/04/14 04:10:58;;;;;;;8.95;2.90;;;;;;;3.93;66.49;101271.45;1747301;81;26049;-74
2021/04/14 04:13:27;;;;;;;11.68;3.00;;;;;;;3.95;66.61;101273.48;1740413;81;25809;-74
2021/04/14 04:15:54;;;;;;;9.90;3.50;;;;;;;3.94;66.81;101275.76;1694344;81;26457;-74
2021/04/14 04:18:22;;;;;;;14.63;4.25;;;;;;;3.96;66.98;101267.70;1689124;82;25788;-73
2021/04/14 04:20:49;;;;;;;12.07;3.60;;;;;;;3.98;67.07;101280.34;1685239;82;27422;-73
2021/04/14 04:23:16;;;;;;;13.35;3.47;;;;;;;4.00;67.11;101282.38;1736155;82;25954;-74
2021/04/14 04:25:44;;;;;;;9.45;3.35;;;;;;;3.99;67.28;101281.53;1700044;81;25758;-73
2021/04/14 04:28:11;;;;;;;12.90;3.95;;;;;;;4.01;67.53;101279.59;1727208;81;26405;-73
2021/04/14 04:30:39;;;;;;;14.23;3.37;;;;;;;4.03;67.40;101284.75;1723136;81;25594;-73
2021/04/14 04:33:07;;;;;;;6.30;3.10;;;;;;;4.06;67.41;101291.14;1747412;81;27542;-73
2021/04/14 04:35:35;;;;;;;11.53;2.90;;;;;;;4.05;67.47;101290.28;1689111;82;25816;-74
2021/04/14 04:38:03;;;;;;;12.55;3.52;;;;;;;4.08;67.76;101290.52;1742811;81;25905;-74
2021/04/14 04:40:31;;;;;;;9.20;3.00;;;;;;;4.07;67.69;101288.34;1717630;82;26395;-73
2021/04/14 04:42:59;;;;;;;10.82;3.22;;;;;;;4.08;67.82;101292.70;1712837;82;25829;-73
2021/04/14 04:45:30;;;;;;;9.45;3.30;;;;;;;4.07;67.97;101294.98;1700755;81;27553;-73
2021/04/14 04:47:58;;;;;;;9.48;2.77;;;;;;;4.05;68.01;101294.27;1725997;81;25953;-74
2021/04/14 04:50:27;;;;;;;8.23;2.60;;;;;;;4.08;68.23;101304.63;1743548;81;25765;-73
2021/04/14 04:52:58;;;;;;;8.75;3.10;;;;;;;4.07;68.20;101300.75;1744909;81;25872;-72
2021/04/14 04:55:26;;;;;;;9.35;3.60;;;;;;;4.09;68.37;101306.77;1698224;81;26019;-73
2021/04/14 04:57:54;;;;;;;9.58;2.52;;;;;;;4.05;68.67;101304.87;1732437;81;27499;-74
2021/04/14 05:00:22;;;;;;;6.45;3.10;;;;;;;4.04;68.73;101303.68;1691655;81;25999;-74
2021/04/14 05:02:50;;;;;;;12.00;3.92;;;;;;;4.00;68.97;101305.72;1747317;81;25824;-74
2021/04/14 05:05:24;;;;;;;11.40;3.15;;;;;;;4.01;69.02;101306.57;1692905;81;26594;-74
2021/04/14 05:07:52;;;;;;;7.12;2.62;;;;;;;4.00;68.98;101312.86;1688916;81;26496;-74
2021/04/14 05:10:20;;;;;;;9.43;2.50;;;;;;;4.01;69.05;101310.55;1744481;81;27542;-73
2021/04/14 05:12:53;;;;;;;9.23;2.47;;;;;;;4.02;69.33;101314.39;1682535;81;26382;-73
2021/04/14 05:15:25;;;;;;;11.43;3.10;;;;;;;4.01;69.05;101307.42;1705453;81;25754;-73
2021/04/14 05:17:53;;;;;;;9.38;3.20;;;;;;;3.99;69.07;101313.34;1715726;81;25816;-73
2021/04/14 05:20:21;;;;;;;10.60;3.10;;;;;;;3.95;68.93;101305.77;1747289;81;25793;-74
2021/04/14 05:22:49;;;;;;;11.70;2.12;;;;;;;3.96;69.17;101312.76;1685579;81;28441;-73
2021/04/14 05:25:20;;;;;;;7.60;2.22;;;;;;;3.95;69.15;101314.56;1732002;81;25922;-74
2021/04/14 05:27:51;;;;;;;8.60;2.47;;;;;;;3.92;68.79;101308.17;1711700;81;26326;-74
2021/04/14 05:30:19;;;;;;;6.77;2.00;;;;;;;3.90;69.16;101308.31;1737704;81;26567;-74
2021/04/14 05:32:48;;;;;;;10.23;3.47;;;;;;;3.93;68.83;101311.20;1724747;81;26543;-74
2021/04/14 05:35:17;;;;;;;9.98;2.50;;;;;;;3.95;68.58;101313.71;1727468;81;27643;-74
2021/04/14 05:37:44;;;;;;;5.80;2.02;;;;;;;3.96;68.77;101310.92;1721480;82;26466;-73
2021/04/14 05:40:13;;;;;;;4.17;1.72;;;;;;;3.95;67.94;101310.59;1739571;81;26010;-73
2021/04/14 05:42:44;;;;;;;6.28;1.98;;;;;;;3.93;67.91;101313.00;1688840;81;26489;-73
2021/04/14 05:45:27;;;;;;;3.67;1.55;;;;;;;3.95;68.13;101309.26;1710470;81;25818;-73
2021/04/14 05:47:56;;;;;;;7.35;2.37;;;;;;;3.95;66.99;101303.95;1736316;81;27155;-73
2021/04/14 05:50:26;;;;;;;4.12;1.70;;;;;;;3.90;67.37;101300.84;1741273;81;26000;-74
2021/04/14 05:52:54;;;;;;;6.17;1.52;;;;;;;3.87;67.42;101303.77;1725784;81;32680;-74
2021/04/14 05:55:24;;;;;;;6.60;1.37;;;;;;;3.86;67.31;101295.44;1717783;81;26477;-73
2021/04/14 05:57:52;;;;;;;5.30;1.60;;;;;;;3.86;67.57;101305.56;1714485;82;25959;-74
2021/04/14 06:00:22;;;;;;;7.47;1.50;;;;;;;3.85;67.77;101306.98;1717953;81;28227;-74
2021/04/14 06:02:50;;;;;;;8.03;1.67;;;;;;;3.84;67.93;101303.52;1716059;81;35519;-73
2021/04/14 06:05:22;;;;;;;4.10;1.35;;;;;;;3.86;67.71;101300.27;1677965;81;26402;-73
2021/04/14 06:07:50;;;;;;;7.30;1.50;;;;;;;3.87;68.17;101305.91;1748069;81;25399;-74
2021/04/14 06:10:22;;;;;;;8.23;2.13;;;;;;;3.84;67.59;101302.67;1726399;81;25877;-74
2021/04/14 06:12:52;;;;;;;8.73;1.47;;;;;;;3.81;67.83;101302.44;1700071;81;27615;-73
2021/04/14 06:15:27;;;;;;;5.78;1.77;;;;;;;3.80;68.36;101306.08;1699251;81;26091;-74
2021/04/14 06:17:55;;;;;;;8.10;1.82;;;;;;;3.82;69.53;101300.16;1714778;81;25820;-74
2021/04/14 06:20:26;;;;;;;7.40;1.77;;;;;;;3.82;69.27;101309.44;1744100;81;25806;-73
2021/04/14 06:22:57;;;;;;;8.05;2.12;;;;;;;3.76;69.79;101309.91;1710412;80;25729;-73
2021/04/14 06:25:24;;;;;;;6.28;1.60;;;;;;;3.67;70.62;101314.66;1694655;81;28261;-73
2021/04/14 06:30:40;;;;;;;11.95;2.42;;;;;;;3.57;71.59;101313.70;1830192;77;25657;-74
2021/04/14 06:33:14;;;;;;;6.75;2.35;;;;;;;3.49;72.17;101307.34;1799876;78;25857;-73
2021/04/14 06:35:41;;;;;;;;;;;;;;;3.45;72.54;101305.92;1774072;78;27531;-73
2021/04/14 06:38:10;;;;;;;6.10;1.87;;;;;;;3.43;73.03;101312.67;1798436;79;25820;-73
2021/04/14 06:43:41;;;;;;;6.62;2.15;;;;;;;3.42;73.25;101307.00;1763881;80;26448;-74
2021/04/14 06:46:22;;;;;;;8.25;1.92;;;;;;;3.43;73.67;101307.38;1790513;80;26357;-73
2021/04/14 06:49:18;;;;;;;11.75;2.50;;;;;;;3.42;74.75;101309.65;1760417;80;27564;-73
2021/04/14 06:51:54;;;;;;;5.55;2.37;;;;;;;3.38;74.36;101311.37;1764008;80;25847;-73
2021/04/14 06:54:45;;;;;;;6.22;2.20;;;;;;;3.38;75.10;101309.55;1711549;80;25911;-74
2021/04/14 06:57:19;;;;;;;10.48;2.55;;;;;;;3.37;75.23;101310.52;1763989;80;25833;-73
2021/04/14 06:59:54;;;;;;;8.95;2.75;;;;;;;3.35;75.31;101312.45;1786108;80;25781;-73
2021/04/14 07:02:29;;;;;;;6.05;2.75;;;;;;;3.36;74.99;101314.13;1763775;77;28375;-74
2021/04/14 07:05:05;;;;;;;6.05;2.47;;;;;;;3.33;75.57;101320.16;1789391;80;26426;-73
2021/04/14 07:07:37;;;;;;;10.75;3.42;;;;;;;3.28;75.57;101318.34;1787363;80;25932;-73
2021/04/14 07:10:13;;;;;;;7.03;2.98;;;;;;;3.27;75.72;101315.36;1763514;80;26197;-73
2021/04/14 07:12:51;;;;;;;9.73;2.72;;;;;;;3.36;75.88;101311.98;1838000;77;25684;-74
2021/04/14 07:15:21;;;;;;;9.13;3.20;;;;;;;3.35;76.54;101315.10;1800983;78;26734;-73
2021/04/14 07:18:10;;;;;;;9.55;3.17;;;;;;;3.39;76.81;101317.86;1795910;79;32588;-73
2021/04/14 07:20:46;;;;;;;14.18;3.27;;;;;;;3.36;76.48;101305.36;1788111;79;25919;-74
2021/04/14 07:23:45;;;;;;;12.35;3.10;;;;;;;3.39;76.79;101308.59;1778677;79;25743;-73
2021/04/14 07:26:48;;;;;;;10.00;2.75;;;;;;;3.43;77.39;101304.73;1775365;80;25725;-74
2021/04/14 07:29:30;;;;;;;11.83;3.30;;;;;;;3.47;77.30;101306.63;1775802;80;26357;-73
2021/04/14 07:32:20;;;;;;;9.70;3.40;;;;;;;3.48;77.14;101305.69;1776003;80;28001;-73
2021/04/14 07:35:30;;;;;;;14.95;4.05;;;;;;;3.50;77.91;101308.57;1772524;80;26086;-73
2021/04/14 07:38:32;;;;;;;11.25;3.42;;;;;;;3.55;77.93;101305.55;1821098;77;25731;-73
2021/04/14 07:41:05;;;;;;;16.60;4.65;;;;;;;3.48;77.54;101303.88;1799914;79;25340;-73
2021/04/14 07:44:06;;;;;;;9.33;3.22;;;;;;;3.52;78.19;101300.49;1756384;79;28868;-73
2021/04/14 07:46:37;;;;;;;14.15;3.10;;;;;;;3.55;78.38;101312.17;1774972;79;26087;-72
2021/04/14 07:49:06;;;;;;;7.03;2.47;;;;;;;3.54;77.74;101308.68;1769179;79;25848;-73
2021/04/14 07:51:34;;;;;;;10.08;3.33;;;;;;;3.54;77.51;101309.16;1799522;79;25837;-73
2021/04/14 07:54:18;;;;;;;10.90;3.45;;;;;;;3.50;78.39;101301.95;1733241;79;25808;-73
2021/04/14 07:56:49;;;;;;;7.08;3.77;;;;;;;3.45;77.96;101304.12;1769533;79;27539;-74
2021/04/14 07:59:33;;;;;;;9.73;3.75;;;;;;;3.37;78.30;101306.55;1774200;79;25876;-74
2021/04/14 08:02:05;;;;;;;7.12;4.22;;;;;;;3.37;78.49;101307.03;1800019;79;25869;-74
2021/04/14 08:04:37;;;;;;;13.05;4.80;;;;;;;3.40;78.60;101306.80;1788581;79;25687;-74
2021/04/14 08:07:23;;;;;;;9.80;3.60;;;;;;;3.42;78.50;101303.53;1769626;79;25813;-74
2021/04/14 08:10:05;;;;;;;14.28;4.67;;;;;;;3.40;79.52;101308.12;1769825;79;28293;-74
2021/04/14 08:12:37;;;;;;;14.73;5.15;;;;;;;3.40;79.69;101308.12;1789391;79;26666;-74
2021/04/14 08:15:17;;;;;;;10.18;3.83;;;;;;;3.37;79.70;101307.03;1735509;80;25996;-74
2021/04/14 08:17:46;;;;;;;10.50;4.28;;;;;;;3.38;79.95;101310.05;1722631;82;26139;-74
2021/04/14 08:20:30;;;;;;;7.08;3.00;;;;;;;3.37;80.46;101305.70;1702815;81;26015;-74
2021/04/14 08:23:20;;;;;;;5.65;2.75;;;;;;;3.34;79.89;101303.29;1752325;81;27537;-75
2021/04/14 08:25:58;;;;;;;5.00;1.77;;;;;;;3.36;80.04;101304.03;1723861;81;25753;-74
2021/04/14 08:28:43;;;;;;;6.80;2.95;;;;;;;3.34;79.10;101304.14;1670087;81;25864;-73
2021/04/14 08:31:44;;;;;;;4.10;1.82;;;;;;;3.30;79.51;101302.70;1702079;81;25815;-74
2021/04/14 08:34:30;;;;;;;8.43;1.72;;;;;;;3.30;79.00;101299.20;1738583;81;25691;-73
2021/04/14 08:37:06;;;;;;;3.33;1.47;;;;;;;3.30;79.87;101301.37;1736366;81;27596;-74
2021/04/14 08:39:43;;;;;;;4.40;1.77;;;;;;;3.32;79.65;101298.60;1719464;81;25896;-74
2021/04/14 08:42:31;;;;;;;5.37;1.90;;;;;;;3.34;80.15;101297.99;1718583;81;25799;-74
2021/04/14 08:45:13;;;;;;;4.05;1.40;;;;;;;3.34;79.83;101305.46;1744517;81;25767;-73
2021/04/14 08:47:45;;;;;;;5.85;1.20;;;;;;;3.34;79.00;101293.55;1743976;81;25757;-73
2021/04/14 08:50:31;;;;;;;1.67;1.37;;;;;;;3.35;79.07;101291.75;1725452;81;27571;-74
2021/04/14 08:53:03;;;;;;;2.45;1.40;;;;;;;3.34;79.06;101291.37;1727275;81;26020;-73
2021/04/14 08:55:31;;;;;;;1.90;1.20;;;;;;;3.35;79.74;101289.95;1726322;81;25838;-73
2021/04/14 08:57:59;;;;;;;2.87;1.55;;;;;;;3.38;79.06;101277.77;1672116;82;26582;-74
2021/04/14 09:00:27;;;;;;;5.50;1.47;;;;;;;3.43;79.48;101276.92;1703866;81;25356;-73
2021/04/14 09:03:02;;;;;;;6.67;1.15;;;;;;;3.44;79.80;101281.74;1730662;81;27406;-73
2021/04/14 09:05:30;;;;;;;4.25;1.62;;;;;;;3.48;79.44;101265.48;1743513;81;26189;-74
2021/04/14 09:08:00;;;;;;;3.65;1.50;;;;;;;3.50;79.74;101272.81;1669902;82;25845;-73
2021/04/14 09:10:50;;;;;;;3.30;1.50;;;;;;;3.54;79.65;101265.45;1750860;81;26132;-73
2021/04/14 09:13:13;;;;;;;2.65;1.47;;;;;;;3.59;79.55;101260.13;1712082;82;26555;-73
2021/04/14 09:15:56;;;;;;;5.55;1.92;;;;;;;3.66;79.55;101259.13;1727202;82;28131;-73
2021/04/14 09:18:35;;;;;;;4.65;1.75;;;;;;;3.74;79.91;101259.37;1686820;82;26780;-73
2021/04/14 09:21:19;;;;;;;2.72;1.15;;;;;;;3.81;79.73;101250.77;1749017;81;26398;-73
2021/04/14 09:24:02;;;;;;;2.58;1.35;;;;;;;3.86;79.24;101250.39;1708923;82;25970;-73
2021/04/14 09:26:36;;;;;;;9.25;1.57;;;;;;;3.94;78.62;101251.91;1740110;81;26063;-73
2021/04/14 09:29:31;;;;;;;3.00;1.05;;;;;;;3.98;78.24;101243.23;1699259;81;27672;-73
2021/04/14 09:32:09;;;;;;;2.10;1.87;;;;;;;3.99;76.23;101240.92;1670163;81;25905;-73
2021/04/14 09:34:47;;;;;;;4.78;1.57;;;;;;;3.99;76.68;101241.77;1724856;81;25982;-74
2021/04/14 09:37:21;;;;;;;7.40;1.47;;;;;;;4.07;76.68;101234.48;1740857;81;26397;-74
2021/04/14 09:40:07;;;;;;;3.40;1.05;;;;;;;4.12;76.30;101223.86;1718311;82;26299;-73
2021/04/14 09:42:43;;;;;;;2.92;1.15;;;;;;;4.16;74.87;101242.52;1686028;82;27525;-74
2021/04/14 09:45:31;;;;;;;3.85;0.90;;;;;;;4.16;74.56;101231.91;1683572;82;25909;-73
2021/04/14 09:48:04;;;;;;;3.37;1.00;;;;;;;4.17;73.38;101228.27;1728472;82;26429;-74
2021/04/14 09:50:36;;;;;;;3.08;1.17;;;;;;;4.13;71.53;101218.08;1692854;82;25745;-74
2021/04/14 09:53:27;;;;;;;1.60;1.00;;;;;;;4.11;72.91;101226.14;1689970;82;25869;-74
2021/04/14 09:56:08;;;;;;;3.10;0.93;;;;;;;4.15;72.09;101224.91;1717870;82;28066;-73
2021/04/14 09:59:10;;;;;;;6.10;1.35;;;;;;;4.22;72.12;101218.59;1728346;82;25743;-74
2021/04/14 10:01:40;;;;;;;4.25;1.40;;;;;;;4.30;72.07;101222.79;1717033;82;25918;-74
2021/04/14 10:04:22;;;;;;;2.10;1.25;;;;;;;4.37;70.81;101228.74;1719393;82;25832;-74
2021/04/14 10:06:56;;;;;;;4.22;1.50;;;;;;;4.38;71.05;101238.40;1716146;82;25895;-73
2021/04/14 10:12:18;;;;;;;5.28;1.45;;;;;;;4.52;71.75;101226.09;1807869;77;25679;-73
2021/04/14 10:14:53;;;;;;;4.25;1.45;;;;;;;4.52;72.15;101226.58;1788720;78;25714;-74
2021/04/14 10:17:23;;;;;;;7.60;1.77;;;;;;;4.53;71.13;101226.95;1708545;80;26918;-74
2021/04/14 10:19:55;;;;;;;7.45;1.30;;;;;;;4.51;71.03;101227.06;1743339;81;26430;-74
2021/04/14 10:22:36;;;;;;;3.85;1.22;;;;;;;4.45;71.08;101222.77;1719560;81;26419;-74
2021/04/14 10:25:07;;;;;;;;;;;;;;;4.39;70.75;101219.32;1754580;80;25731;-74
2021/04/14 10:27:35;;;;;;;3.30;1.02;;;;;;;4.43;70.90;101214.09;1751936;81;29569;-73
2021/04/14 10:30:10;;;;;;;3.37;0.98;;;;;;;4.46;70.16;101209.87;1726241;81;28545;-73
2021/04/14 10:32:38;;;;;;;4.20;1.00;;;;;;;4.47;69.32;101222.17;1742465;81;25807;-73
2021/04/14 10:35:16;;;;;;;2.62;1.20;;;;;;;4.49;70.29;101217.06;1723311;81;25802;-73
2021/04/14 10:37:49;;;;;;;2.40;0.98;;;;;;;4.55;69.64;101223.67;1699892;81;25943;-74
2021/04/14 10:40:36;;;;;;;2.10;1.12;;;;;;;4.54;68.86;101221.98;1723730;81;26365;-74
2021/04/14 10:43:20;;;;;;;2.33;0.88;;;;;;;4.52;69.77;101219.47;1753743;81;27319;-74
2021/04/14 10:46:04;;;;;;;3.87;1.27;;;;;;;4.56;70.20;101210.27;1749443;81;26114;-74
2021/04/14 10:48:43;;;;;;;1.37;0.93;;;;;;;4.58;69.55;101212.77;1749718;81;25766;-74
2021/04/14 10:51:24;;;;;;;2.37;0.90;;;;;;;4.60;69.55;101217.45;1755757;81;25776;-74
2021/04/14 10:53:57;;;;;;;1.77;1.40;;;;;;;4.60;69.13;101223.61;1728903;81;25823;-73
2021/04/14 10:56:27;;;;;;;;;;;;;;;4.54;69.04;101215.34;1756683;80;27532;-74
2021/04/14 10:58:58;;;;;;;3.98;1.15;;;;;;;4.52;70.02;101220.80;1734164;81;25871;-73
2021/04/14 11:01:39;;;;;;;1.80;1.00;;;;;;;4.46;70.36;101217.83;1734390;81;25866;-73
2021/04/14 11:04:34;;;;;;;1.42;0.90;;;;;;;4.49;70.38;101214.92;1818341;77;25654;-73
2021/04/14 11:07:07;;;;;;;1.25;1.15;;;;;;;4.43;70.65;101212.77;1770045;80;26051;-74
2021/04/14 11:09:38;;;;;;;2.05;1.40;;;;;;;4.40;71.00;101221.02;1701113;82;27538;-73
2021/04/14 11:12:10;;;;;;;4.78;1.22;;;;;;;4.33;72.47;101220.70;1702873;82;25835;-73
2021/04/14 11:14:41;;;;;;;2.30;0.82;;;;;;;4.32;72.41;101215.54;1702158;82;25830;-74
2021/04/14 11:17:13;;;;;;;5.22;1.20;;;;;;;4.36;73.50;101220.42;1722211;82;25858;-74
2021/04/14 11:19:45;;;;;;;3.37;1.65;;;;;;;4.40;73.31;101219.69;1643973;83;25980;-73
2021/04/14 11:22:12;;;;;;;5.42;2.15;;;;;;;4.34;73.78;101216.25;1656281;84;28690;-74
2021/04/14 11:24:47;;;;;;;5.05;1.50;;;;;;;4.26;74.62;101217.36;1654957;85;25855;-73
2021/04/14 11:27:23;;;;;;;2.75;1.60;;;;;;;4.21;74.89;101220.44;1697510;83;25746;-73
2021/04/14 11:30:10;;;;;;;4.72;1.57;;;;;;;4.17;75.07;101216.84;1670874;83;25814;-73
2021/04/14 11:32:38;;;;;;;6.42;2.30;;;;;;;4.15;75.97;101212.98;1684564;84;25742;-74
2021/04/14 11:35:13;;;;;;;3.75;1.80;;;;;;;4.17;76.56;101211.03;1664557;83;28290;-72
2021/04/14 11:37:45;;;;;;;4.80;2.35;;;;;;;4.26;76.97;101206.28;1681101;84;25960;-73
2021/04/14 11:40:23;;;;;;;5.22;2.08;;;;;;;4.33;76.93;101203.94;1674154;83;26470;-73
2021/04/14 11:42:58;;;;;;;3.35;2.47;;;;;;;4.44;77.50;101199.87;1673154;83;26220;-74
2021/04/14 11:45:39;;;;;;;5.97;3.02;;;;;;;4.55;77.07;101199.80;1671993;83;25918;-73
2021/04/14 11:48:13;;;;;;;4.85;2.22;;;;;;;4.68;77.70;101201.22;1687910;82;27561;-73
2021/04/14 11:50:44;;;;;;;4.78;2.70;;;;;;;4.85;78.03;101205.55;1629694;83;25751;-75
2021/04/14 11:53:30;;;;;;;8.90;2.77;;;;;;;4.88;77.08;101193.31;1659326;83;25922;-74
2021/04/14 11:56:02;;;;;;;5.42;3.22;;;;;;;4.94;77.22;101194.13;1676280;83;25906;-74
2021/04/14 11:58:47;;;;;;;8.13;3.90;;;;;;;5.00;76.42;101191.77;1692079;82;25722;-73
2021/04/14 12:01:28;;;;;;;13.35;2.77;;;;;;;5.03;76.55;101186.65;1645429;83;28452;-74
2021/04/14 12:03:56;;;;;;;8.53;3.08;;;;;;;5.10;76.46;101182.48;1664087;83;25840;-73
2021/04/14 12:06:24;;;;;;;5.40;3.20;;;;;;;5.20;76.65;101182.84;1669168;83;25448;-73
2021/04/14 12:08:52;;;;;;;11.60;2.67;;;;;;;5.31;76.49;101180.06;1694580;81;26315;-73